createdAt,value
2023-04-01T08:49:18.123Z,9.73
2023-04-01T09:04:19.598Z,4.93
2023-04-01T09:19:21.098Z,5.40
2023-04-01T09:34:22.599Z,2.93
2023-04-01T09:49:24.185Z,3.60
2023-04-01T10:04:25.657Z,3.47
2023-04-01T10:19:27.118Z,2.13
2023-04-01T10:34:28.643Z,4.13
2023-04-01T10:49:30.157Z,8.10
2023-04-01T11:04:31.662Z,2.50
2023-04-01T11:19:33.154Z,2.93
2023-04-01T11:34:34.759Z,1.97
2023-04-01T11:49:36.294Z,3.33
2023-04-01T12:04:37.872Z,2.13
2023-04-01T12:19:39.347Z,2.37
2023-04-01T12:34:40.817Z,1.40
2023-04-01T12:49:42.385Z,2.60
2023-04-01T13:04:43.877Z,1.80
2023-04-01T13:19:57.911Z,2.13
2023-04-01T13:35:03.796Z,2.27
2023-04-01T13:50:05.384Z,3.50
2023-04-01T14:05:06.883Z,1.90
2023-04-01T14:20:08.532Z,2.93
2023-04-01T14:35:10.041Z,1.17
2023-04-01T14:50:11.538Z,3.97
2023-04-01T15:05:13.189Z,1.70
2023-04-01T15:20:14.809Z,4.07
2023-04-01T15:35:16.307Z,44.60
2023-04-01T15:50:17.777Z,32.27
2023-04-01T16:05:19.328Z,18.87
2023-04-01T16:20:20.979Z,18.57
2023-04-01T16:35:22.484Z,16.37
2023-04-01T16:50:24.063Z,11.77
2023-04-01T17:05:25.678Z,11.27
2023-04-01T17:20:27.143Z,9.17
2023-04-01T17:35:28.730Z,7.80
2023-04-01T17:50:30.210Z,6.97
2023-04-01T18:05:31.808Z,5.87
2023-04-01T18:20:33.685Z,6.37
2023-04-01T18:35:35.512Z,6.57
2023-04-01T18:50:37.005Z,5.53
2023-04-01T19:05:38.552Z,3.53
2023-04-01T19:20:39.994Z,4.53
2023-04-01T19:35:41.448Z,3.80
2023-04-01T19:50:42.971Z,3.30
2023-04-01T20:05:44.452Z,4.23
2023-04-01T20:20:45.953Z,4.27
2023-04-01T20:35:47.505Z,3.67
2023-04-01T20:50:48.976Z,6.53
2023-04-01T21:05:50.439Z,3.03
2023-04-01T21:20:51.940Z,3.43
2023-04-01T21:35:53.554Z,3.00
2023-04-01T21:50:55.033Z,2.40
2023-04-01T22:05:56.507Z,2.60
2023-04-01T22:20:58.107Z,2.67
2023-04-01T22:35:59.665Z,1.80
2023-04-01T22:51:01.139Z,2.37
2023-04-01T23:06:02.653Z,1.30
2023-04-01T23:21:04.145Z,1.57
2023-04-01T23:36:05.695Z,1.77
2023-04-01T23:51:07.211Z,1.63
